createdAt,value
2022-11-09T00:00:48.794Z,11.90
2022-11-09T00:03:15.810Z,12.05
2022-11-09T00:05:44.912Z,11.25
2022-11-09T00:08:12.119Z,11.85
2022-11-09T00:10:39.219Z,12.63
2022-11-09T00:13:06.398Z,12.63
2022-11-09T00:15:33.246Z,11.27
2022-11-09T00:18:02.739Z,11.48
2022-11-09T00:20:29.778Z,12.40
2022-11-09T00:22:57.132Z,12.43
2022-11-09T00:25:24.540Z,12.00
2022-11-09T00:27:51.528Z,11.88
2022-11-09T00:30:18.574Z,12.77
2022-11-09T00:32:45.523Z,12.18
2022-11-09T00:35:12.396Z,12.57
2022-11-09T00:37:39.649Z,13.05
2022-11-09T00:40:07.505Z,11.00
2022-11-09T00:42:34.324Z,12.30
2022-11-09T00:45:01.150Z,11.93
2022-11-09T00:47:28.037Z,12.50
2022-11-09T00:49:55.785Z,12.18
2022-11-09T00:52:22.616Z,10.88
2022-11-09T00:54:49.740Z,11.30
2022-11-09T00:57:17.210Z,11.73
2022-11-09T00:59:44.153Z,11.90
2022-11-09T01:02:11.171Z,12.23
2022-11-09T01:04:38.084Z,13.10
2022-11-09T01:07:06.848Z,12.75
2022-11-09T01:09:34.013Z,12.98
2022-11-09T01:12:00.913Z,13.02
2022-11-09T01:14:27.717Z,11.85
2022-11-09T01:16:54.691Z,11.82
2022-11-09T01:19:21.508Z,13.18
2022-11-09T01:21:48.353Z,12.38
2022-11-09T01:24:15.211Z,12.43
2022-11-09T01:26:42.050Z,12.85
2022-11-09T01:29:08.897Z,12.30
2022-11-09T01:31:35.905Z,12.75
2022-11-09T01:34:02.999Z,12.02
2022-11-09T01:36:30.246Z,12.43
2022-11-09T01:38:57.125Z,12.20
2022-11-09T01:41:27.251Z,11.52
2022-11-09T01:44:03.332Z,12.68
2022-11-09T01:46:51.368Z,14.50
2022-11-09T01:49:27.119Z,13.60
2022-11-09T01:52:02.914Z,15.85
2022-11-09T01:54:36.239Z,14.63
2022-11-09T01:57:15.279Z,15.02
2022-11-09T01:59:47.858Z,14.90
2022-11-09T02:02:15.149Z,15.48
2022-11-09T02:04:49.598Z,16.65
2022-11-09T02:07:17.161Z,15.85
2022-11-09T02:09:50.403Z,16.77
2022-11-09T02:12:18.656Z,17.17
2022-11-09T02:14:48.691Z,16.23
2022-11-09T02:17:15.856Z,16.65
2022-11-09T02:19:42.768Z,16.33
2022-11-09T02:22:09.762Z,14.82
2022-11-09T02:24:36.695Z,17.58
2022-11-09T02:27:06.565Z,16.17
2022-11-09T02:29:37.395Z,16.25
2022-11-09T02:32:09.997Z,16.35
2022-11-09T02:34:36.988Z,16.05
2022-11-09T02:37:04.092Z,17.90
2022-11-09T02:39:31.192Z,17.20
2022-11-09T02:42:09.909Z,18.35
2022-11-09T02:44:40.979Z,17.13
2022-11-09T02:47:08.236Z,16.98
2022-11-09T02:49:35.246Z,17.52
2022-11-09T02:52:02.240Z,17.17
2022-11-09T02:54:29.237Z,16.92
2022-11-09T02:56:56.209Z,17.45
2022-11-09T02:59:23.114Z,16.75
2022-11-09T03:01:50.097Z,16.00
2022-11-09T03:04:16.997Z,16.92
2022-11-09T03:06:44.378Z,16.35
2022-11-09T03:09:12.602Z,16.17
2022-11-09T03:11:41.062Z,15.90
2022-11-09T03:14:09.922Z,16.48
2022-11-09T03:16:40.083Z,15.43
2022-11-09T03:19:07.633Z,16.35
2022-11-09T03:21:35.416Z,17.20
2022-11-09T03:24:02.369Z,15.25
2022-11-09T03:26:29.539Z,15.70
2022-11-09T03:28:56.327Z,15.52
2022-11-09T03:31:23.227Z,15.50
2022-11-09T03:33:50.214Z,16.20
2022-11-09T03:36:17.063Z,14.60
2022-11-09T03:38:43.901Z,14.88
2022-11-09T03:41:10.738Z,15.70
2022-11-09T03:43:37.584Z,14.63
2022-11-09T03:46:04.471Z,15.98
2022-11-09T03:48:31.459Z,15.18
2022-11-09T03:50:58.393Z,16.08
2022-11-09T03:53:25.414Z,15.27
2022-11-09T03:55:52.183Z,15.93
2022-11-09T03:58:18.990Z,16.27
2022-11-09T04:00:45.983Z,16.85
2022-11-09T04:03:12.864Z,16.08
2022-11-09T04:05:39.743Z,16.85
2022-11-09T04:08:06.609Z,16.60
2022-11-09T04:10:38.089Z,16.38
2022-11-09T04:13:04.921Z,16.08
2022-11-09T04:15:31.770Z,16.23
2022-11-09T04:18:00.189Z,16.77
2022-11-09T04:20:28.855Z,15.93
2022-11-09T04:23:01.753Z,17.58
2022-11-09T04:25:32.649Z,16.45
2022-11-09T04:28:00.699Z,16.58
2022-11-09T04:30:29.536Z,16.75
2022-11-09T04:32:57.330Z,18.30
2022-11-09T04:35:24.893Z,17.85
2022-11-09T04:37:58.482Z,18.40
2022-11-09T04:40:27.823Z,18.50
2022-11-09T04:42:55.339Z,17.52
2022-11-09T04:45:22.560Z,16.98
2022-11-09T04:47:49.504Z,18.92
2022-11-09T04:50:16.615Z,18.73
2022-11-09T04:52:43.545Z,20.27
2022-11-09T04:55:10.474Z,19.58
2022-11-09T04:57:38.099Z,18.50
2022-11-09T05:00:05.535Z,21.20
2022-11-09T05:02:32.888Z,19.48
2022-11-09T05:05:00.097Z,19.33
2022-11-09T05:07:27.062Z,20.35
2022-11-09T05:09:53.942Z,21.38
2022-11-09T05:12:21.073Z,20.27
2022-11-09T05:14:48.014Z,20.58
2022-11-09T05:17:15.523Z,20.60
2022-11-09T05:19:42.440Z,21.50
2022-11-09T05:22:27.716Z,22.17
2022-11-09T05:24:54.869Z,20.67
2022-11-09T05:27:22.033Z,22.67
2022-11-09T05:29:49.018Z,22.15
2022-11-09T05:32:16.161Z,21.08
2022-11-09T05:34:43.363Z,20.92
2022-11-09T05:37:10.416Z,21.38
2022-11-09T05:39:37.744Z,21.75
2022-11-09T05:42:05.333Z,21.25
2022-11-09T05:44:32.539Z,22.63
2022-11-09T05:47:01.593Z,21.67
2022-11-09T05:49:45.817Z,20.17
2022-11-09T05:52:16.810Z,20.13
2022-11-09T06:11:55.143Z,19.27
2022-11-09T06:19:00.226Z,17.50
2022-11-09T06:26:11.447Z,17.65
2022-11-09T06:29:00.233Z,17.70
2022-11-09T06:32:11.522Z,18.52
2022-11-09T06:35:31.038Z,18.85
2022-11-09T06:38:40.501Z,17.38
2022-11-09T06:41:22.984Z,16.98
2022-11-09T06:44:32.148Z,17.67
2022-11-09T07:02:15.274Z,15.70
2022-11-09T07:24:33.192Z,12.75
2022-11-09T07:47:07.582Z,11.43
2022-11-09T07:49:47.774Z,11.18
2022-11-09T07:55:43.081Z,10.35
2022-11-09T07:58:24.081Z,9.68
2022-11-09T08:01:11.966Z,9.57
2022-11-09T08:03:45.129Z,9.20
2022-11-09T08:06:18.351Z,8.23
2022-11-09T08:12:04.679Z,8.15
2022-11-09T08:14:34.519Z,8.45
2022-11-09T08:17:02.156Z,8.52
2022-11-09T08:19:39.632Z,8.88
2022-11-09T08:22:11.185Z,9.40
2022-11-09T08:24:43.729Z,8.85
2022-11-09T08:27:11.003Z,9.10
2022-11-09T08:29:38.687Z,8.25
2022-11-09T08:32:27.044Z,8.98
2022-11-09T08:35:20.120Z,8.27
2022-11-09T08:38:04.566Z,9.50
2022-11-09T08:44:09.516Z,9.18
2022-11-09T08:47:01.141Z,8.23
2022-11-09T08:58:24.211Z,8.40
2022-11-09T09:10:09.156Z,9.60
2022-11-09T09:16:45.317Z,16.52
2022-11-09T09:28:37.520Z,9.80
2022-11-09T09:31:23.590Z,10.32
2022-11-09T09:33:52.328Z,9.82
2022-11-09T09:36:27.106Z,8.85
2022-11-09T09:38:55.119Z,9.30
2022-11-09T09:42:06.112Z,9.20
2022-11-09T09:45:54.652Z,11.35
2022-11-09T09:49:00.160Z,10.43
2022-11-09T09:52:09.445Z,11.45
2022-11-09T09:56:02.836Z,9.60
2022-11-09T10:32:04.994Z,7.60
2022-11-09T10:35:21.722Z,7.22
2022-11-09T10:37:55.582Z,7.32
2022-11-09T10:40:49.010Z,7.25
2022-11-09T10:47:12.221Z,7.40
2022-11-09T11:00:57.830Z,8.43
2022-11-09T11:17:36.619Z,8.93
2022-11-09T11:23:59.320Z,8.93
2022-11-09T11:33:42.936Z,8.52
2022-11-09T11:41:33.351Z,8.20
2022-11-09T11:46:46.326Z,8.27
2022-11-09T11:53:24.736Z,7.85
2022-11-09T11:57:02.528Z,8.50
2022-11-09T12:00:10.170Z,8.45
2022-11-09T12:03:22.752Z,8.35
2022-11-09T12:06:24.058Z,8.90
2022-11-09T12:09:24.656Z,9.15
2022-11-09T12:12:33.779Z,9.00
2022-11-09T12:15:31.325Z,8.80
2022-11-09T12:18:41.047Z,8.35
2022-11-09T12:21:16.183Z,8.20
2022-11-09T12:24:03.057Z,8.55
2022-11-09T12:30:14.962Z,8.90
2022-11-09T12:33:03.871Z,8.68
2022-11-09T12:36:31.942Z,9.32
2022-11-09T12:39:06.209Z,10.75
2022-11-09T12:41:41.910Z,10.25
2022-11-09T12:44:19.093Z,11.32
2022-11-09T12:47:04.601Z,11.07
2022-11-09T12:49:43.243Z,11.63
2022-11-09T12:52:21.091Z,11.30
2022-11-09T12:54:52.531Z,11.75
2022-11-09T12:57:33.836Z,11.52
2022-11-09T13:00:34.037Z,12.65
2022-11-09T13:03:06.663Z,11.93
2022-11-09T13:05:38.684Z,11.85
2022-11-09T13:08:08.832Z,12.50
2022-11-09T13:10:39.665Z,11.77
2022-11-09T13:13:13.567Z,12.20
2022-11-09T13:16:26.942Z,15.93
2022-11-09T13:18:54.657Z,13.10
2022-11-09T13:21:21.559Z,12.50
2022-11-09T13:24:09.182Z,12.85
2022-11-09T13:26:37.801Z,14.80
2022-11-09T13:29:27.710Z,13.68
2022-11-09T13:32:12.766Z,12.98
2022-11-09T13:34:56.632Z,13.30
2022-11-09T13:37:38.944Z,14.00
2022-11-09T13:40:30.939Z,14.27
2022-11-09T13:43:01.606Z,18.83
2022-11-09T13:45:36.682Z,14.90
2022-11-09T13:48:06.128Z,14.63
2022-11-09T13:50:35.374Z,14.48
2022-11-09T13:53:03.655Z,14.48
2022-11-09T13:55:42.191Z,13.93
2022-11-09T13:58:35.509Z,14.23
2022-11-09T14:01:03.000Z,13.40
2022-11-09T14:03:31.575Z,14.52
2022-11-09T14:06:01.434Z,17.25
2022-11-09T14:08:33.892Z,16.80
2022-11-09T14:11:28.062Z,14.35
2022-11-09T14:14:13.993Z,14.23
2022-11-09T14:16:55.146Z,14.07
2022-11-09T14:19:41.176Z,13.98
2022-11-09T14:22:17.104Z,15.52
2022-11-09T14:24:44.488Z,15.00
2022-11-09T14:27:11.722Z,15.35
2022-11-09T14:29:56.761Z,15.55
2022-11-09T14:32:35.858Z,16.15
2022-11-09T14:35:12.250Z,15.88
2022-11-09T14:37:44.335Z,15.88
2022-11-09T14:40:28.067Z,14.82
2022-11-09T14:43:01.065Z,15.82
2022-11-09T14:45:29.063Z,16.00
2022-11-09T14:48:02.128Z,15.77
2022-11-09T14:50:37.001Z,16.05
2022-11-09T14:53:05.946Z,15.95
2022-11-09T14:55:35.391Z,16.52
2022-11-09T14:58:03.628Z,16.10
2022-11-09T15:00:34.631Z,16.10
2022-11-09T15:03:26.149Z,16.23
2022-11-09T15:06:15.048Z,16.88
2022-11-09T15:08:54.274Z,16.55
2022-11-09T15:11:30.796Z,16.75
2022-11-09T15:13:58.184Z,17.13
2022-11-09T15:16:29.509Z,17.27
2022-11-09T15:18:56.444Z,17.15
2022-11-09T15:21:26.446Z,16.98
2022-11-09T15:24:08.881Z,16.50
2022-11-09T15:26:39.907Z,16.88
2022-11-09T15:29:41.740Z,18.48
2022-11-09T15:32:16.627Z,16.48
2022-11-09T15:34:56.024Z,16.17
2022-11-09T15:37:27.303Z,17.85
2022-11-09T15:39:54.762Z,16.38
2022-11-09T15:42:22.936Z,16.58
2022-11-09T15:44:58.544Z,15.88
2022-11-09T15:47:31.873Z,17.48
2022-11-09T15:50:17.288Z,17.63
2022-11-09T15:52:44.475Z,17.25
2022-11-09T15:55:16.963Z,16.27
2022-11-09T15:57:45.025Z,17.05
2022-11-09T16:00:19.507Z,17.27
2022-11-09T16:02:48.011Z,17.95
2022-11-09T16:05:15.986Z,17.40
2022-11-09T16:08:01.177Z,18.17
2022-11-09T16:10:30.502Z,17.38
2022-11-09T16:12:58.212Z,17.83
2022-11-09T16:15:26.162Z,18.10
2022-11-09T16:17:53.310Z,16.77
2022-11-09T16:20:21.647Z,17.20
2022-11-09T16:22:49.323Z,16.92
2022-11-09T16:25:16.713Z,17.15
2022-11-09T16:27:51.947Z,17.52
2022-11-09T16:30:20.217Z,17.58
2022-11-09T16:32:47.125Z,17.20
2022-11-09T16:35:29.291Z,18.15
2022-11-09T16:37:58.342Z,19.77
2022-11-09T16:40:27.059Z,19.08
2022-11-09T16:42:53.977Z,18.73
2022-11-09T16:45:21.884Z,19.00
2022-11-09T16:47:53.024Z,18.23
2022-11-09T16:50:20.213Z,18.92
2022-11-09T16:52:47.192Z,18.35
2022-11-09T16:55:14.730Z,18.42
2022-11-09T16:57:41.788Z,18.38
2022-11-09T17:00:09.481Z,19.98
2022-11-09T17:02:36.333Z,17.85
2022-11-09T17:05:03.582Z,19.15
2022-11-09T17:07:31.976Z,18.33
2022-11-09T17:09:58.966Z,19.48
2022-11-09T17:12:25.965Z,18.08
2022-11-09T17:14:52.913Z,19.40
2022-11-09T17:17:22.825Z,18.90
2022-11-09T17:19:50.003Z,19.88
2022-11-09T17:22:18.062Z,20.20
2022-11-09T17:24:45.131Z,21.65
2022-11-09T17:27:12.899Z,19.95
2022-11-09T17:29:40.474Z,18.27
2022-11-09T17:32:09.501Z,20.00
2022-11-09T17:34:36.770Z,20.50
2022-11-09T17:37:05.581Z,20.63
2022-11-09T17:39:33.593Z,19.65
2022-11-09T17:42:00.665Z,19.73
2022-11-09T17:44:27.605Z,19.65
2022-11-09T17:46:54.735Z,19.05
2022-11-09T17:49:21.592Z,20.80
2022-11-09T17:51:48.694Z,20.92
2022-11-09T17:54:16.293Z,20.33
2022-11-09T17:56:43.317Z,20.08
2022-11-09T17:59:10.959Z,19.95
2022-11-09T18:01:41.489Z,20.60
2022-11-09T18:04:11.099Z,20.00
2022-11-09T18:06:39.114Z,19.13
2022-11-09T18:11:53.488Z,19.85
2022-11-09T18:14:20.873Z,17.83
2022-11-09T18:16:48.067Z,19.15
2022-11-09T18:19:15.046Z,19.88
2022-11-09T18:21:44.474Z,19.10
2022-11-09T18:24:11.819Z,18.80
2022-11-09T18:26:38.928Z,19.00
2022-11-09T18:29:05.917Z,20.73
2022-11-09T18:31:33.010Z,19.40
2022-11-09T18:34:00.199Z,20.63
2022-11-09T18:36:28.044Z,20.10
2022-11-09T18:38:56.121Z,20.65
2022-11-09T18:41:24.748Z,21.90
2022-11-09T18:43:53.992Z,21.17
2022-11-09T18:46:22.054Z,21.67
2022-11-09T18:48:53.572Z,19.65
2022-11-09T18:51:20.979Z,21.85
2022-11-09T18:53:48.774Z,22.20
2022-11-09T18:56:25.106Z,22.08
2022-11-09T19:01:23.269Z,22.83
2022-11-09T19:03:56.271Z,23.02
2022-11-09T19:06:26.522Z,24.42
2022-11-09T19:09:12.374Z,23.75
2022-11-09T19:11:39.463Z,22.83
2022-11-09T19:14:06.763Z,23.10
2022-11-09T19:16:34.325Z,23.63
2022-11-09T19:19:01.162Z,23.55
2022-11-09T19:21:34.353Z,25.25
2022-11-09T19:24:01.764Z,24.10
2022-11-09T19:26:29.227Z,26.60
2022-11-09T19:28:56.313Z,25.80
2022-11-09T19:31:24.847Z,26.08
2022-11-09T19:33:52.312Z,27.45
2022-11-09T19:36:30.156Z,26.58
2022-11-09T19:38:58.275Z,26.92
2022-11-09T19:41:25.729Z,25.38
2022-11-09T19:43:56.004Z,26.52
2022-11-09T19:46:23.088Z,28.00
2022-11-09T19:48:50.178Z,27.98
2022-11-09T19:51:18.484Z,27.48
2022-11-09T19:53:53.472Z,29.83
2022-11-09T19:56:22.144Z,31.02
2022-11-09T19:58:55.433Z,29.83
2022-11-09T20:01:23.436Z,29.23
2022-11-09T20:03:52.230Z,30.27
2022-11-09T20:06:20.352Z,30.88
2022-11-09T20:08:48.448Z,31.42
2022-11-09T20:11:37.788Z,32.75
2022-11-09T20:14:05.899Z,34.50
2022-11-09T20:16:34.597Z,37.15
2022-11-09T20:19:03.773Z,34.78
2022-11-09T20:21:31.182Z,35.38
2022-11-09T20:23:58.873Z,35.30
2022-11-09T20:26:25.914Z,34.78
2022-11-09T20:28:54.032Z,34.60
2022-11-09T20:31:22.472Z,36.03
2022-11-09T20:33:51.324Z,35.58
2022-11-09T20:36:19.123Z,34.75
2022-11-09T20:38:47.192Z,37.70
2022-11-09T20:41:14.520Z,36.70
2022-11-09T20:43:41.942Z,35.08
2022-11-09T20:46:15.023Z,35.83
2022-11-09T20:48:58.994Z,35.03
2022-11-09T20:51:26.290Z,35.72
2022-11-09T20:53:53.287Z,34.35
2022-11-09T20:56:20.967Z,34.17
2022-11-09T20:58:48.323Z,34.55
2022-11-09T21:01:18.772Z,34.03
2022-11-09T21:03:47.145Z,32.38
2022-11-09T21:06:14.801Z,33.50
2022-11-09T21:08:45.321Z,34.10
2022-11-09T21:11:14.962Z,34.50
2022-11-09T21:13:44.242Z,33.03
2022-11-09T21:16:16.013Z,34.28
2022-11-09T21:18:43.369Z,34.10
2022-11-09T21:21:15.825Z,35.78
2022-11-09T21:24:01.539Z,32.83
2022-11-09T21:26:47.355Z,34.58
2022-11-09T21:29:38.440Z,33.58
2022-11-09T21:32:06.526Z,32.30
2022-11-09T21:34:36.790Z,32.13
2022-11-09T21:37:05.157Z,33.72
2022-11-09T21:39:32.624Z,33.42
2022-11-09T21:42:00.010Z,34.67
2022-11-09T21:44:31.437Z,34.85
2022-11-09T21:46:59.133Z,32.65
2022-11-09T21:49:26.159Z,33.28
2022-11-09T21:51:53.458Z,32.40
2022-11-09T21:54:21.139Z,33.38
2022-11-09T21:56:49.073Z,31.17
2022-11-09T21:59:16.127Z,31.75
2022-11-09T22:01:43.612Z,33.80
2022-11-09T22:04:10.628Z,34.97
2022-11-09T22:06:39.490Z,33.38
2022-11-09T22:09:10.505Z,30.92
2022-11-09T22:11:57.718Z,33.05
2022-11-09T22:14:43.603Z,32.88
2022-11-09T22:17:10.687Z,33.17
2022-11-09T22:19:58.131Z,33.10
2022-11-09T22:22:28.947Z,32.05
2022-11-09T22:24:55.891Z,31.50
2022-11-09T22:27:22.849Z,32.55
2022-11-09T22:29:49.836Z,33.63
2022-11-09T22:32:17.225Z,33.65
2022-11-09T22:34:44.998Z,34.08
2022-11-09T22:37:12.142Z,33.15
2022-11-09T22:39:41.797Z,35.88
2022-11-09T22:42:12.983Z,35.85
2022-11-09T22:44:39.887Z,38.22
2022-11-09T22:47:07.007Z,35.20
2022-11-09T22:49:36.781Z,35.78
2022-11-09T22:52:05.104Z,35.85
2022-11-09T22:54:32.194Z,36.92
2022-11-09T22:56:59.187Z,34.95
2022-11-09T22:59:26.094Z,38.50
2022-11-09T23:01:53.097Z,37.88
2022-11-09T23:04:20.004Z,38.80
2022-11-09T23:06:47.003Z,39.33
2022-11-09T23:09:13.961Z,39.88
2022-11-09T23:11:40.937Z,39.47
2022-11-09T23:14:11.528Z,40.35
2022-11-09T23:16:38.581Z,39.58
2022-11-09T23:19:05.410Z,39.22
2022-11-09T23:21:37.094Z,39.03
2022-11-09T23:24:06.619Z,39.50
2022-11-09T23:26:34.310Z,40.05
2022-11-09T23:29:01.770Z,39.40
2022-11-09T23:31:28.680Z,40.13
2022-11-09T23:33:57.298Z,39.55
2022-11-09T23:36:25.972Z,39.00
2022-11-09T23:38:53.011Z,36.47
2022-11-09T23:41:20.311Z,39.33
2022-11-09T23:43:49.634Z,38.08
2022-11-09T23:46:18.026Z,37.28
2022-11-09T23:48:45.379Z,39.20
2022-11-09T23:51:12.525Z,38.35
2022-11-09T23:53:40.051Z,37.78
2022-11-09T23:56:10.190Z,36.22
2022-11-09T23:58:37.828Z,38.08
